sensor_id;sensor_type;location;lat;lon;timestamp;P1;durP1;ratioP1;P2;durP2;ratioP2
12871;SDS011;6504;53.766;9.626;2023-05-10T00:00:16;3.73;;;2.80;;
12871;SDS011;6504;53.766;9.626;2023-05-10T00:02:44;4.43;;;2.97;;
12871;SDS011;6504;53.766;9.626;2023-05-10T00:05:13;3.13;;;2.80;;
12871;SDS011;6504;53.766;9.626;2023-05-10T00:07:41;2.73;;;2.53;;
12871;SDS011;6504;53.766;9.626;2023-05-10T00:10:11;6.27;;;3.20;;
12871;SDS011;6504;53.766;9.626;2023-05-10T00:12:39;5.30;;;3.07;;
12871;SDS011;6504;53.766;9.626;2023-05-10T00:15:09;3.93;;;2.83;;
12871;SDS011;6504;53.766;9.626;2023-05-10T00:17:37;4.20;;;3.10;;
12871;SDS011;6504;53.766;9.626;2023-05-10T00:20:06;4.10;;;3.17;;
12871;SDS011;6504;53.766;9.626;2023-05-10T00:22:35;3.20;;;2.90;;
12871;SDS011;6504;53.766;9.626;2023-05-10T00:25:03;3.47;;;3.17;;
12871;SDS011;6504;53.766;9.626;2023-05-10T00:27:32;3.37;;;3.07;;
12871;SDS011;6504;53.766;9.626;2023-05-10T00:30:00;4.07;;;2.90;;
12871;SDS011;6504;53.766;9.626;2023-05-10T00:32:30;3.67;;;3.33;;
12871;SDS011;6504;53.766;9.626;2023-05-10T00:34:58;4.13;;;3.23;;
12871;SDS011;6504;53.766;9.626;2023-05-10T00:37:26;4.13;;;3.13;;
12871;SDS011;6504;53.766;9.626;2023-05-10T00:39:54;3.63;;;2.67;;
12871;SDS011;6504;53.766;9.626;2023-05-10T00:42:22;4.37;;;3.33;;
12871;SDS011;6504;53.766;9.626;2023-05-10T00:44:50;9.50;;;3.30;;
12871;SDS011;6504;53.766;9.626;2023-05-10T00:47:18;3.40;;;3.10;;
12871;SDS011;6504;53.766;9.626;2023-05-10T00:49:47;3.47;;;3.17;;
12871;SDS011;6504;53.766;9.626;2023-05-10T00:52:15;3.77;;;3.10;;
12871;SDS011;6504;53.766;9.626;2023-05-10T00:54:43;3.47;;;3.10;;
12871;SDS011;6504;53.766;9.626;2023-05-10T00:57:12;3.70;;;3.20;;
12871;SDS011;6504;53.766;9.626;2023-05-10T00:59:40;4.23;;;3.50;;
12871;SDS011;6504;53.766;9.626;2023-05-10T01:02:08;3.83;;;3.53;;
12871;SDS011;6504;53.766;9.626;2023-05-10T01:04:36;3.63;;;3.33;;
12871;SDS011;6504;53.766;9.626;2023-05-10T01:07:07;3.90;;;3.40;;
12871;SDS011;6504;53.766;9.626;2023-05-10T01:09:35;6.07;;;3.43;;
12871;SDS011;6504;53.766;9.626;2023-05-10T01:12:04;3.73;;;3.20;;
12871;SDS011;6504;53.766;9.626;2023-05-10T01:14:33;3.93;;;3.53;;
12871;SDS011;6504;53.766;9.626;2023-05-10T01:17:03;3.90;;;3.50;;
12871;SDS011;6504;53.766;9.626;2023-05-10T01:19:34;3.73;;;3.23;;
12871;SDS011;6504;53.766;9.626;2023-05-10T01:22:05;3.40;;;3.10;;
12871;SDS011;6504;53.766;9.626;2023-05-10T01:24:57;4.00;;;3.47;;
12871;SDS011;6504;53.766;9.626;2023-05-10T01:28:03;4.93;;;3.90;;
12871;SDS011;6504;53.766;9.626;2023-05-10T01:30:50;4.00;;;3.53;;
12871;SDS011;6504;53.766;9.626;2023-05-10T01:33:34;5.97;;;3.40;;
12871;SDS011;6504;53.766;9.626;2023-05-10T01:36:08;5.37;;;3.73;;
12871;SDS011;6504;53.766;9.626;2023-05-10T01:38:52;3.93;;;3.50;;
12871;SDS011;6504;53.766;9.626;2023-05-10T01:41:27;3.80;;;3.40;;
12871;SDS011;6504;53.766;9.626;2023-05-10T01:44:04;4.20;;;3.80;;
12871;SDS011;6504;53.766;9.626;2023-05-10T01:46:38;4.77;;;3.50;;
12871;SDS011;6504;53.766;9.626;2023-05-10T01:49:09;4.20;;;3.53;;
12871;SDS011;6504;53.766;9.626;2023-05-10T01:51:39;4.17;;;3.77;;
12871;SDS011;6504;53.766;9.626;2023-05-10T01:54:12;4.03;;;3.47;;
12871;SDS011;6504;53.766;9.626;2023-05-10T01:56:42;3.90;;;3.60;;
12871;SDS011;6504;53.766;9.626;2023-05-10T01:59:13;4.30;;;3.60;;
12871;SDS011;6504;53.766;9.626;2023-05-10T02:01:44;4.43;;;3.77;;
12871;SDS011;6504;53.766;9.626;2023-05-10T02:04:15;5.40;;;3.90;;
12871;SDS011;6504;53.766;9.626;2023-05-10T02:06:45;4.43;;;3.93;;
12871;SDS011;6504;53.766;9.626;2023-05-10T02:09:14;5.50;;;3.53;;
12871;SDS011;6504;53.766;9.626;2023-05-10T02:11:43;4.17;;;3.80;;
12871;SDS011;6504;53.766;9.626;2023-05-10T02:14:12;4.53;;;4.00;;
12871;SDS011;6504;53.766;9.626;2023-05-10T02:16:41;4.20;;;3.80;;
12871;SDS011;6504;53.766;9.626;2023-05-10T02:19:12;3.93;;;3.43;;
12871;SDS011;6504;53.766;9.626;2023-05-10T02:21:43;4.33;;;3.80;;
12871;SDS011;6504;53.766;9.626;2023-05-10T02:24:12;4.73;;;3.37;;
12871;SDS011;6504;53.766;9.626;2023-05-10T02:26:43;4.30;;;3.90;;
12871;SDS011;6504;53.766;9.626;2023-05-10T02:29:12;4.07;;;3.47;;
12871;SDS011;6504;53.766;9.626;2023-05-10T02:31:42;4.10;;;3.70;;
12871;SDS011;6504;53.766;9.626;2023-05-10T02:34:11;5.00;;;3.83;;
12871;SDS011;6504;53.766;9.626;2023-05-10T02:36:39;4.30;;;3.90;;
12871;SDS011;6504;53.766;9.626;2023-05-10T02:39:10;5.33;;;3.90;;
12871;SDS011;6504;53.766;9.626;2023-05-10T02:41:40;4.20;;;3.80;;
12871;SDS011;6504;53.766;9.626;2023-05-10T02:44:10;3.97;;;3.50;;
12871;SDS011;6504;53.766;9.626;2023-05-10T02:46:41;4.43;;;3.83;;
12871;SDS011;6504;53.766;9.626;2023-05-10T02:49:09;4.60;;;4.10;;
12871;SDS011;6504;53.766;9.626;2023-05-10T02:51:40;4.40;;;4.10;;
12871;SDS011;6504;53.766;9.626;2023-05-10T02:54:18;4.20;;;3.90;;
12871;SDS011;6504;53.766;9.626;2023-05-10T02:56:49;4.63;;;4.20;;
12871;SDS011;6504;53.766;9.626;2023-05-10T02:59:20;4.77;;;4.23;;
12871;SDS011;6504;53.766;9.626;2023-05-10T03:01:48;4.60;;;3.60;;
12871;SDS011;6504;53.766;9.626;2023-05-10T03:04:16;4.23;;;3.60;;
12871;SDS011;6504;53.766;9.626;2023-05-10T03:06:45;4.37;;;3.77;;
12871;SDS011;6504;53.766;9.626;2023-05-10T03:09:14;4.43;;;4.03;;
12871;SDS011;6504;53.766;9.626;2023-05-10T03:11:47;5.53;;;4.40;;
12871;SDS011;6504;53.766;9.626;2023-05-10T03:14:27;5.07;;;3.97;;
12871;SDS011;6504;53.766;9.626;2023-05-10T03:17:09;5.17;;;4.40;;
12871;SDS011;6504;53.766;9.626;2023-05-10T03:19:43;5.60;;;4.13;;
12871;SDS011;6504;53.766;9.626;2023-05-10T03:22:16;4.43;;;4.00;;
12871;SDS011;6504;53.766;9.626;2023-05-10T03:24:53;4.97;;;4.10;;
12871;SDS011;6504;53.766;9.626;2023-05-10T03:27:23;5.07;;;4.10;;
12871;SDS011;6504;53.766;9.626;2023-05-10T03:29:54;5.27;;;4.03;;
12871;SDS011;6504;53.766;9.626;2023-05-10T03:32:23;4.47;;;4.07;;
12871;SDS011;6504;53.766;9.626;2023-05-10T03:34:51;4.87;;;4.33;;
12871;SDS011;6504;53.766;9.626;2023-05-10T03:37:20;4.50;;;4.00;;
12871;SDS011;6504;53.766;9.626;2023-05-10T03:39:48;4.47;;;4.03;;
12871;SDS011;6504;53.766;9.626;2023-05-10T03:42:16;4.40;;;4.00;;
12871;SDS011;6504;53.766;9.626;2023-05-10T03:44:45;6.20;;;4.37;;
12871;SDS011;6504;53.766;9.626;2023-05-10T03:47:13;4.13;;;3.80;;
12871;SDS011;6504;53.766;9.626;2023-05-10T03:49:41;4.57;;;4.10;;
12871;SDS011;6504;53.766;9.626;2023-05-10T03:52:09;4.53;;;4.10;;
12871;SDS011;6504;53.766;9.626;2023-05-10T03:54:38;4.83;;;4.27;;
12871;SDS011;6504;53.766;9.626;2023-05-10T03:57:06;4.83;;;4.20;;
12871;SDS011;6504;53.766;9.626;2023-05-10T03:59:34;4.57;;;4.17;;
12871;SDS011;6504;53.766;9.626;2023-05-10T04:02:02;4.60;;;4.10;;
12871;SDS011;6504;53.766;9.626;2023-05-10T04:04:30;3.97;;;3.57;;
12871;SDS011;6504;53.766;9.626;2023-05-10T04:06:58;4.63;;;4.20;;
12871;SDS011;6504;53.766;9.626;2023-05-10T04:09:26;5.53;;;4.03;;
12871;SDS011;6504;53.766;9.626;2023-05-10T04:11:56;5.60;;;4.10;;
12871;SDS011;6504;53.766;9.626;2023-05-10T04:14:25;5.60;;;4.53;;
12871;SDS011;6504;53.766;9.626;2023-05-10T04:16:53;4.43;;;4.07;;
12871;SDS011;6504;53.766;9.626;2023-05-10T04:19:22;4.70;;;4.20;;
12871;SDS011;6504;53.766;9.626;2023-05-10T04:21:50;5.00;;;4.27;;
12871;SDS011;6504;53.766;9.626;2023-05-10T04:24:18;4.37;;;3.97;;
12871;SDS011;6504;53.766;9.626;2023-05-10T04:26:46;5.07;;;4.50;;
12871;SDS011;6504;53.766;9.626;2023-05-10T04:29:15;6.43;;;4.37;;
12871;SDS011;6504;53.766;9.626;2023-05-10T04:31:43;4.60;;;4.20;;
12871;SDS011;6504;53.766;9.626;2023-05-10T04:34:12;4.40;;;4.00;;
12871;SDS011;6504;53.766;9.626;2023-05-10T04:36:40;7.40;;;4.27;;
12871;SDS011;6504;53.766;9.626;2023-05-10T04:39:08;5.63;;;4.33;;
12871;SDS011;6504;53.766;9.626;2023-05-10T04:41:37;6.70;;;4.20;;
12871;SDS011;6504;53.766;9.626;2023-05-10T04:44:05;3.93;;;3.63;;
12871;SDS011;6504;53.766;9.626;2023-05-10T04:46:35;4.20;;;3.73;;
12871;SDS011;6504;53.766;9.626;2023-05-10T04:49:03;3.93;;;3.47;;
12871;SDS011;6504;53.766;9.626;2023-05-10T04:51:31;4.30;;;3.90;;
12871;SDS011;6504;53.766;9.626;2023-05-10T04:53:59;6.07;;;4.23;;
12871;SDS011;6504;53.766;9.626;2023-05-10T04:56:32;5.17;;;4.40;;
12871;SDS011;6504;53.766;9.626;2023-05-10T04:59:00;4.97;;;4.47;;
12871;SDS011;6504;53.766;9.626;2023-05-10T05:01:28;4.20;;;3.73;;
12871;SDS011;6504;53.766;9.626;2023-05-10T05:03:58;4.60;;;4.20;;
12871;SDS011;6504;53.766;9.626;2023-05-10T05:06:26;5.00;;;4.50;;
12871;SDS011;6504;53.766;9.626;2023-05-10T05:08:54;5.47;;;4.50;;
12871;SDS011;6504;53.766;9.626;2023-05-10T05:11:22;4.77;;;4.30;;
12871;SDS011;6504;53.766;9.626;2023-05-10T05:13:51;4.97;;;4.27;;
12871;SDS011;6504;53.766;9.626;2023-05-10T05:16:19;4.93;;;4.03;;
12871;SDS011;6504;53.766;9.626;2023-05-10T05:18:47;4.83;;;4.33;;
12871;SDS011;6504;53.766;9.626;2023-05-10T05:21:17;5.63;;;4.17;;
12871;SDS011;6504;53.766;9.626;2023-05-10T05:23:47;4.57;;;4.17;;
12871;SDS011;6504;53.766;9.626;2023-05-10T05:26:15;4.33;;;3.93;;
12871;SDS011;6504;53.766;9.626;2023-05-10T05:28:43;6.07;;;4.87;;
12871;SDS011;6504;53.766;9.626;2023-05-10T05:31:11;5.23;;;4.80;;
12871;SDS011;6504;53.766;9.626;2023-05-10T05:33:40;5.20;;;4.50;;
12871;SDS011;6504;53.766;9.626;2023-05-10T05:36:08;5.13;;;4.63;;
12871;SDS011;6504;53.766;9.626;2023-05-10T05:38:37;5.63;;;4.43;;
12871;SDS011;6504;53.766;9.626;2023-05-10T05:41:05;5.13;;;4.20;;
12871;SDS011;6504;53.766;9.626;2023-05-10T05:43:33;4.93;;;4.43;;
12871;SDS011;6504;53.766;9.626;2023-05-10T05:46:03;4.77;;;4.37;;
12871;SDS011;6504;53.766;9.626;2023-05-10T05:48:32;5.10;;;4.60;;
12871;SDS011;6504;53.766;9.626;2023-05-10T05:51:00;6.33;;;4.43;;
12871;SDS011;6504;53.766;9.626;2023-05-10T05:53:31;4.63;;;4.23;;
12871;SDS011;6504;53.766;9.626;2023-05-10T05:56:01;6.00;;;4.53;;
12871;SDS011;6504;53.766;9.626;2023-05-10T05:58:29;4.90;;;4.40;;
12871;SDS011;6504;53.766;9.626;2023-05-10T06:00:57;5.87;;;4.57;;
12871;SDS011;6504;53.766;9.626;2023-05-10T06:03:25;4.30;;;3.90;;
12871;SDS011;6504;53.766;9.626;2023-05-10T06:05:54;5.40;;;4.30;;
12871;SDS011;6504;53.766;9.626;2023-05-10T06:08:21;5.80;;;4.57;;
12871;SDS011;6504;53.766;9.626;2023-05-10T06:10:50;5.37;;;4.47;;
12871;SDS011;6504;53.766;9.626;2023-05-10T06:13:19;4.93;;;4.47;;
12871;SDS011;6504;53.766;9.626;2023-05-10T06:15:47;6.13;;;4.43;;
12871;SDS011;6504;53.766;9.626;2023-05-10T06:18:15;5.20;;;4.70;;
12871;SDS011;6504;53.766;9.626;2023-05-10T06:20:43;5.20;;;4.20;;
12871;SDS011;6504;53.766;9.626;2023-05-10T06:23:11;6.23;;;4.50;;
12871;SDS011;6504;53.766;9.626;2023-05-10T06:25:39;4.70;;;4.30;;
12871;SDS011;6504;53.766;9.626;2023-05-10T06:28:07;4.60;;;4.20;;
12871;SDS011;6504;53.766;9.626;2023-05-10T06:30:37;5.97;;;4.80;;
12871;SDS011;6504;53.766;9.626;2023-05-10T06:33:05;4.80;;;4.37;;
12871;SDS011;6504;53.766;9.626;2023-05-10T06:35:33;5.57;;;4.60;;
12871;SDS011;6504;53.766;9.626;2023-05-10T06:38:01;5.53;;;4.10;;
12871;SDS011;6504;53.766;9.626;2023-05-10T06:40:29;4.77;;;4.30;;
12871;SDS011;6504;53.766;9.626;2023-05-10T06:42:57;5.70;;;4.57;;
12871;SDS011;6504;53.766;9.626;2023-05-10T06:45:25;4.80;;;3.97;;
12871;SDS011;6504;53.766;9.626;2023-05-10T06:47:55;5.77;;;4.73;;
12871;SDS011;6504;53.766;9.626;2023-05-10T06:50:23;5.50;;;4.30;;
12871;SDS011;6504;53.766;9.626;2023-05-10T06:52:51;7.37;;;4.50;;
12871;SDS011;6504;53.766;9.626;2023-05-10T06:55:19;4.97;;;4.13;;
12871;SDS011;6504;53.766;9.626;2023-05-10T06:57:47;6.07;;;4.30;;
12871;SDS011;6504;53.766;9.626;2023-05-10T07:00:15;5.30;;;4.80;;
12871;SDS011;6504;53.766;9.626;2023-05-10T07:02:44;4.90;;;4.00;;
12871;SDS011;6504;53.766;9.626;2023-05-10T07:05:14;5.67;;;4.33;;
12871;SDS011;6504;53.766;9.626;2023-05-10T07:07:43;4.40;;;4.00;;
12871;SDS011;6504;53.766;9.626;2023-05-10T07:10:11;4.67;;;4.27;;
12871;SDS011;6504;53.766;9.626;2023-05-10T07:12:39;7.57;;;4.50;;
12871;SDS011;6504;53.766;9.626;2023-05-10T07:15:08;4.70;;;4.30;;
12871;SDS011;6504;53.766;9.626;2023-05-10T07:17:36;5.63;;;4.33;;
12871;SDS011;6504;53.766;9.626;2023-05-10T07:20:07;4.77;;;4.27;;
12871;SDS011;6504;53.766;9.626;2023-05-10T07:22:37;5.30;;;4.53;;
12871;SDS011;6504;53.766;9.626;2023-05-10T07:25:06;4.33;;;3.93;;
12871;SDS011;6504;53.766;9.626;2023-05-10T07:27:34;4.93;;;4.23;;
12871;SDS011;6504;53.766;9.626;2023-05-10T07:30:02;4.93;;;4.50;;
12871;SDS011;6504;53.766;9.626;2023-05-10T07:32:31;4.93;;;4.50;;
12871;SDS011;6504;53.766;9.626;2023-05-10T07:34:59;5.17;;;4.67;;
12871;SDS011;6504;53.766;9.626;2023-05-10T07:37:27;5.93;;;4.20;;
12871;SDS011;6504;53.766;9.626;2023-05-10T07:39:56;4.83;;;4.10;;
12871;SDS011;6504;53.766;9.626;2023-05-10T07:42:24;6.90;;;4.43;;
12871;SDS011;6504;53.766;9.626;2023-05-10T07:44:53;5.37;;;4.60;;
12871;SDS011;6504;53.766;9.626;2023-05-10T07:47:21;5.50;;;4.37;;
12871;SDS011;6504;53.766;9.626;2023-05-10T07:49:49;5.90;;;4.23;;
12871;SDS011;6504;53.766;9.626;2023-05-10T07:52:17;5.20;;;4.50;;
12871;SDS011;6504;53.766;9.626;2023-05-10T07:54:47;5.20;;;4.33;;
12871;SDS011;6504;53.766;9.626;2023-05-10T07:57:17;5.73;;;4.67;;
12871;SDS011;6504;53.766;9.626;2023-05-10T07:59:45;5.77;;;4.27;;
12871;SDS011;6504;53.766;9.626;2023-05-10T08:02:13;4.80;;;4.40;;
12871;SDS011;6504;53.766;9.626;2023-05-10T08:04:41;6.23;;;4.43;;
12871;SDS011;6504;53.766;9.626;2023-05-10T08:07:10;6.40;;;4.50;;
12871;SDS011;6504;53.766;9.626;2023-05-10T08:09:38;5.40;;;4.90;;
12871;SDS011;6504;53.766;9.626;2023-05-10T08:12:06;4.90;;;4.50;;
12871;SDS011;6504;53.766;9.626;2023-05-10T08:14:35;4.57;;;4.10;;
12871;SDS011;6504;53.766;9.626;2023-05-10T08:17:03;5.40;;;4.13;;
12871;SDS011;6504;53.766;9.626;2023-05-10T08:19:32;5.93;;;4.87;;
12871;SDS011;6504;53.766;9.626;2023-05-10T08:22:00;6.50;;;4.33;;
12871;SDS011;6504;53.766;9.626;2023-05-10T08:24:28;5.10;;;4.50;;
12871;SDS011;6504;53.766;9.626;2023-05-10T08:26:56;5.20;;;4.70;;
12871;SDS011;6504;53.766;9.626;2023-05-10T08:29:24;5.17;;;4.73;;
12871;SDS011;6504;53.766;9.626;2023-05-10T08:31:57;5.83;;;4.77;;
12871;SDS011;6504;53.766;9.626;2023-05-10T08:34:25;6.13;;;4.77;;
12871;SDS011;6504;53.766;9.626;2023-05-10T08:36:53;6.70;;;5.27;;
12871;SDS011;6504;53.766;9.626;2023-05-10T08:39:21;5.27;;;4.60;;
12871;SDS011;6504;53.766;9.626;2023-05-10T08:41:57;5.80;;;5.30;;
12871;SDS011;6504;53.766;9.626;2023-05-10T08:44:28;5.50;;;4.90;;
12871;SDS011;6504;53.766;9.626;2023-05-10T08:46:59;7.70;;;5.40;;
12871;SDS011;6504;53.766;9.626;2023-05-10T08:49:32;5.67;;;5.27;;
12871;SDS011;6504;53.766;9.626;2023-05-10T08:52:02;6.03;;;5.00;;
12871;SDS011;6504;53.766;9.626;2023-05-10T08:54:31;6.10;;;5.47;;
12871;SDS011;6504;53.766;9.626;2023-05-10T08:57:00;5.90;;;5.27;;
12871;SDS011;6504;53.766;9.626;2023-05-10T08:59:28;6.30;;;5.80;;
12871;SDS011;6504;53.766;9.626;2023-05-10T09:01:57;6.00;;;5.50;;
12871;SDS011;6504;53.766;9.626;2023-05-10T09:04:27;6.63;;;5.97;;
12871;SDS011;6504;53.766;9.626;2023-05-10T09:06:56;6.67;;;6.07;;
12871;SDS011;6504;53.766;9.626;2023-05-10T09:09:25;6.40;;;5.90;;
12871;SDS011;6504;53.766;9.626;2023-05-10T09:11:54;6.00;;;5.50;;
12871;SDS011;6504;53.766;9.626;2023-05-10T09:14:23;5.83;;;5.33;;
12871;SDS011;6504;53.766;9.626;2023-05-10T09:16:51;7.57;;;6.10;;
12871;SDS011;6504;53.766;9.626;2023-05-10T09:19:21;6.27;;;5.67;;
12871;SDS011;6504;53.766;9.626;2023-05-10T09:21:50;6.80;;;5.90;;
12871;SDS011;6504;53.766;9.626;2023-05-10T09:24:18;6.40;;;5.80;;
12871;SDS011;6504;53.766;9.626;2023-05-10T09:26:47;6.13;;;5.63;;
12871;SDS011;6504;53.766;9.626;2023-05-10T09:29:15;7.90;;;6.20;;
12871;SDS011;6504;53.766;9.626;2023-05-10T09:31:44;6.53;;;5.93;;
12871;SDS011;6504;53.766;9.626;2023-05-10T09:34:17;6.40;;;5.80;;
12871;SDS011;6504;53.766;9.626;2023-05-10T09:36:54;6.60;;;6.00;;
12871;SDS011;6504;53.766;9.626;2023-05-10T09:39:30;6.93;;;6.33;;
12871;SDS011;6504;53.766;9.626;2023-05-10T09:41:59;7.00;;;6.00;;
12871;SDS011;6504;53.766;9.626;2023-05-10T09:44:30;6.50;;;5.90;;
12871;SDS011;6504;53.766;9.626;2023-05-10T09:46:59;6.27;;;5.67;;
12871;SDS011;6504;53.766;9.626;2023-05-10T09:49:27;9.13;;;6.33;;
12871;SDS011;6504;53.766;9.626;2023-05-10T09:52:04;7.50;;;6.33;;
12871;SDS011;6504;53.766;9.626;2023-05-10T09:54:33;6.40;;;5.90;;
12871;SDS011;6504;53.766;9.626;2023-05-10T09:57:02;7.13;;;6.53;;
12871;SDS011;6504;53.766;9.626;2023-05-10T09:59:32;7.13;;;6.53;;
12871;SDS011;6504;53.766;9.626;2023-05-10T10:02:01;7.37;;;6.67;;
12871;SDS011;6504;53.766;9.626;2023-05-10T10:04:30;7.97;;;7.27;;
12871;SDS011;6504;53.766;9.626;2023-05-10T10:06:59;7.93;;;7.17;;
12871;SDS011;6504;53.766;9.626;2023-05-10T10:09:32;7.50;;;6.90;;
12871;SDS011;6504;53.766;9.626;2023-05-10T10:12:01;7.67;;;7.07;;
12871;SDS011;6504;53.766;9.626;2023-05-10T10:14:30;7.50;;;6.93;;
12871;SDS011;6504;53.766;9.626;2023-05-10T10:16:59;7.90;;;7.20;;
12871;SDS011;6504;53.766;9.626;2023-05-10T10:19:32;7.87;;;7.20;;
12871;SDS011;6504;53.766;9.626;2023-05-10T10:22:01;8.50;;;7.70;;
12871;SDS011;6504;53.766;9.626;2023-05-10T10:24:31;7.60;;;7.00;;
12871;SDS011;6504;53.766;9.626;2023-05-10T10:27:00;7.77;;;7.10;;
12871;SDS011;6504;53.766;9.626;2023-05-10T10:29:36;8.87;;;8.17;;
12871;SDS011;6504;53.766;9.626;2023-05-10T10:32:17;7.93;;;7.33;;
12871;SDS011;6504;53.766;9.626;2023-05-10T10:34:51;7.67;;;7.07;;
12871;SDS011;6504;53.766;9.626;2023-05-10T10:37:22;8.73;;;7.93;;
12871;SDS011;6504;53.766;9.626;2023-05-10T10:39:51;8.33;;;7.63;;
12871;SDS011;6504;53.766;9.626;2023-05-10T10:42:43;8.30;;;7.60;;
12871;SDS011;6504;53.766;9.626;2023-05-10T10:45:12;7.33;;;6.73;;
12871;SDS011;6504;53.766;9.626;2023-05-10T10:47:41;8.37;;;7.77;;
12871;SDS011;6504;53.766;9.626;2023-05-10T10:50:09;9.17;;;8.33;;
12871;SDS011;6504;53.766;9.626;2023-05-10T10:52:40;8.03;;;7.40;;
12871;SDS011;6504;53.766;9.626;2023-05-10T10:55:09;7.67;;;6.97;;
12871;SDS011;6504;53.766;9.626;2023-05-10T10:57:48;8.37;;;7.67;;
12871;SDS011;6504;53.766;9.626;2023-05-10T11:00:22;8.20;;;7.40;;
12871;SDS011;6504;53.766;9.626;2023-05-10T11:02:53;9.07;;;8.27;;
12871;SDS011;6504;53.766;9.626;2023-05-10T11:05:23;8.50;;;7.80;;
12871;SDS011;6504;53.766;9.626;2023-05-10T11:07:54;8.40;;;7.60;;
12871;SDS011;6504;53.766;9.626;2023-05-10T11:10:23;7.47;;;6.87;;
12871;SDS011;6504;53.766;9.626;2023-05-10T11:12:52;8.77;;;8.07;;
12871;SDS011;6504;53.766;9.626;2023-05-10T11:15:28;9.80;;;8.37;;
12871;SDS011;6504;53.766;9.626;2023-05-10T11:17:56;8.17;;;7.43;;
12871;SDS011;6504;53.766;9.626;2023-05-10T11:20:26;8.37;;;7.60;;
12871;SDS011;6504;53.766;9.626;2023-05-10T11:23:11;7.40;;;6.70;;
12871;SDS011;6504;53.766;9.626;2023-05-10T11:25:42;8.70;;;7.80;;
12871;SDS011;6504;53.766;9.626;2023-05-10T11:28:11;8.27;;;7.57;;
12871;SDS011;6504;53.766;9.626;2023-05-10T11:30:39;8.57;;;7.80;;
12871;SDS011;6504;53.766;9.626;2023-05-10T11:33:14;7.97;;;7.37;;
12871;SDS011;6504;53.766;9.626;2023-05-10T11:35:43;8.63;;;7.83;;
12871;SDS011;6504;53.766;9.626;2023-05-10T11:38:13;8.70;;;7.90;;
12871;SDS011;6504;53.766;9.626;2023-05-10T11:40:41;8.40;;;7.70;;
12871;SDS011;6504;53.766;9.626;2023-05-10T11:43:09;8.57;;;7.77;;
12871;SDS011;6504;53.766;9.626;2023-05-10T11:45:39;8.03;;;7.33;;
12871;SDS011;6504;53.766;9.626;2023-05-10T11:48:09;8.80;;;8.10;;
12871;SDS011;6504;53.766;9.626;2023-05-10T11:50:37;9.23;;;8.43;;
12871;SDS011;6504;53.766;9.626;2023-05-10T11:53:05;7.83;;;7.13;;
12871;SDS011;6504;53.766;9.626;2023-05-10T11:55:35;8.03;;;7.33;;
12871;SDS011;6504;53.766;9.626;2023-05-10T11:58:03;7.80;;;7.17;;
12871;SDS011;6504;53.766;9.626;2023-05-10T12:00:31;8.63;;;7.83;;
12871;SDS011;6504;53.766;9.626;2023-05-10T12:03:00;8.33;;;7.63;;
12871;SDS011;6504;53.766;9.626;2023-05-10T12:05:31;8.03;;;7.33;;
12871;SDS011;6504;53.766;9.626;2023-05-10T12:08:12;8.13;;;7.33;;
12871;SDS011;6504;53.766;9.626;2023-05-10T12:10:42;7.23;;;6.53;;
12871;SDS011;6504;53.766;9.626;2023-05-10T12:13:11;7.17;;;6.53;;
12871;SDS011;6504;53.766;9.626;2023-05-10T12:15:40;6.57;;;6.07;;
12871;SDS011;6504;53.766;9.626;2023-05-10T12:18:09;6.77;;;6.27;;
12871;SDS011;6504;53.766;9.626;2023-05-10T12:20:38;7.70;;;7.07;;
12871;SDS011;6504;53.766;9.626;2023-05-10T12:23:07;6.80;;;6.30;;
12871;SDS011;6504;53.766;9.626;2023-05-10T12:25:37;6.63;;;6.03;;
12871;SDS011;6504;53.766;9.626;2023-05-10T12:28:07;6.23;;;5.70;;
12871;SDS011;6504;53.766;9.626;2023-05-10T12:30:36;5.83;;;5.33;;
12871;SDS011;6504;53.766;9.626;2023-05-10T12:33:07;7.20;;;6.60;;
12871;SDS011;6504;53.766;9.626;2023-05-10T12:35:43;7.30;;;6.70;;
12871;SDS011;6504;53.766;9.626;2023-05-10T12:38:23;6.90;;;6.40;;
12871;SDS011;6504;53.766;9.626;2023-05-10T12:40:53;6.83;;;6.33;;
12871;SDS011;6504;53.766;9.626;2023-05-10T12:43:22;6.83;;;6.23;;
12871;SDS011;6504;53.766;9.626;2023-05-10T12:45:50;7.63;;;7.03;;
12871;SDS011;6504;53.766;9.626;2023-05-10T12:48:18;7.20;;;6.60;;
12871;SDS011;6504;53.766;9.626;2023-05-10T12:50:47;6.47;;;5.97;;
12871;SDS011;6504;53.766;9.626;2023-05-10T12:53:15;6.90;;;6.30;;
12871;SDS011;6504;53.766;9.626;2023-05-10T12:55:43;6.03;;;5.57;;
12871;SDS011;6504;53.766;9.626;2023-05-10T12:58:12;7.77;;;7.17;;
12871;SDS011;6504;53.766;9.626;2023-05-10T13:01:01;7.70;;;7.00;;
12871;SDS011;6504;53.766;9.626;2023-05-10T13:03:30;6.50;;;6.00;;
12871;SDS011;6504;53.766;9.626;2023-05-10T13:05:58;6.27;;;5.67;;
12871;SDS011;6504;53.766;9.626;2023-05-10T13:08:26;6.07;;;5.47;;
12871;SDS011;6504;53.766;9.626;2023-05-10T13:10:59;7.57;;;6.97;;
12871;SDS011;6504;53.766;9.626;2023-05-10T13:13:27;6.43;;;5.93;;
12871;SDS011;6504;53.766;9.626;2023-05-10T13:15:55;7.83;;;7.23;;
12871;SDS011;6504;53.766;9.626;2023-05-10T13:18:25;7.10;;;6.50;;
12871;SDS011;6504;53.766;9.626;2023-05-10T13:20:53;8.07;;;7.37;;
12871;SDS011;6504;53.766;9.626;2023-05-10T13:23:22;8.53;;;7.83;;
12871;SDS011;6504;53.766;9.626;2023-05-10T13:25:50;8.07;;;7.37;;
12871;SDS011;6504;53.766;9.626;2023-05-10T13:28:18;6.90;;;6.40;;
12871;SDS011;6504;53.766;9.626;2023-05-10T13:30:46;6.77;;;6.27;;
12871;SDS011;6504;53.766;9.626;2023-05-10T13:33:14;7.37;;;6.77;;
12871;SDS011;6504;53.766;9.626;2023-05-10T13:35:43;8.20;;;7.50;;
12871;SDS011;6504;53.766;9.626;2023-05-10T13:38:11;7.90;;;7.30;;
12871;SDS011;6504;53.766;9.626;2023-05-10T13:40:40;9.53;;;8.70;;
12871;SDS011;6504;53.766;9.626;2023-05-10T13:43:08;9.37;;;8.47;;
12871;SDS011;6504;53.766;9.626;2023-05-10T13:45:36;9.40;;;8.60;;
12871;SDS011;6504;53.766;9.626;2023-05-10T13:48:05;8.57;;;7.77;;
12871;SDS011;6504;53.766;9.626;2023-05-10T13:50:33;8.80;;;8.03;;
12871;SDS011;6504;53.766;9.626;2023-05-10T13:53:02;8.13;;;7.43;;
12871;SDS011;6504;53.766;9.626;2023-05-10T13:55:31;9.43;;;8.73;;
12871;SDS011;6504;53.766;9.626;2023-05-10T13:57:59;10.70;;;9.90;;
12871;SDS011;6504;53.766;9.626;2023-05-10T14:00:27;9.83;;;9.03;;
12871;SDS011;6504;53.766;9.626;2023-05-10T14:02:55;8.70;;;8.10;;
12871;SDS011;6504;53.766;9.626;2023-05-10T14:05:23;10.50;;;9.60;;
12871;SDS011;6504;53.766;9.626;2023-05-10T14:07:52;9.53;;;8.83;;
12871;SDS011;6504;53.766;9.626;2023-05-10T14:10:22;8.40;;;7.70;;
12871;SDS011;6504;53.766;9.626;2023-05-10T14:12:50;9.23;;;8.43;;
12871;SDS011;6504;53.766;9.626;2023-05-10T14:15:18;9.33;;;8.63;;
12871;SDS011;6504;53.766;9.626;2023-05-10T14:17:46;9.10;;;8.40;;
12871;SDS011;6504;53.766;9.626;2023-05-10T14:20:14;9.77;;;8.97;;
12871;SDS011;6504;53.766;9.626;2023-05-10T14:22:42;11.37;;;10.37;;
12871;SDS011;6504;53.766;9.626;2023-05-10T14:25:10;10.47;;;9.67;;
12871;SDS011;6504;53.766;9.626;2023-05-10T14:27:40;10.83;;;9.97;;
12871;SDS011;6504;53.766;9.626;2023-05-10T14:30:08;10.93;;;10.13;;
12871;SDS011;6504;53.766;9.626;2023-05-10T14:32:37;10.87;;;10.07;;
12871;SDS011;6504;53.766;9.626;2023-05-10T14:35:05;10.57;;;9.77;;
12871;SDS011;6504;53.766;9.626;2023-05-10T14:37:37;11.30;;;10.40;;
12871;SDS011;6504;53.766;9.626;2023-05-10T14:40:07;10.90;;;10.00;;
12871;SDS011;6504;53.766;9.626;2023-05-10T14:42:36;10.50;;;9.70;;
12871;SDS011;6504;53.766;9.626;2023-05-10T14:45:06;10.20;;;9.40;;
12871;SDS011;6504;53.766;9.626;2023-05-10T14:47:35;10.80;;;9.90;;
12871;SDS011;6504;53.766;9.626;2023-05-10T14:50:03;10.00;;;9.20;;
12871;SDS011;6504;53.766;9.626;2023-05-10T14:52:32;9.60;;;8.90;;
12871;SDS011;6504;53.766;9.626;2023-05-10T14:55:00;8.97;;;8.27;;
12871;SDS011;6504;53.766;9.626;2023-05-10T14:57:28;10.50;;;9.60;;
12871;SDS011;6504;53.766;9.626;2023-05-10T14:59:56;10.67;;;9.87;;
12871;SDS011;6504;53.766;9.626;2023-05-10T15:02:26;10.57;;;9.70;;
12871;SDS011;6504;53.766;9.626;2023-05-10T15:04:55;10.10;;;9.40;;
12871;SDS011;6504;53.766;9.626;2023-05-10T15:07:24;9.57;;;8.87;;
12871;SDS011;6504;53.766;9.626;2023-05-10T15:09:52;9.87;;;8.97;;
12871;SDS011;6504;53.766;9.626;2023-05-10T15:12:20;9.37;;;8.50;;
12871;SDS011;6504;53.766;9.626;2023-05-10T15:14:48;9.20;;;8.50;;